Time;durP1;ratioP1;P1;durP2;ratioP2;P2;SDS_P1;SDS_P2;PMS_P1;PMS_P2;Temp;Humidity;BMP_temperature;BMP_pressure;BME280_temperature;BME280_humidity;BME280_pressure;Samples;Min_cycle;Max_cycle;Signal;HPM_P1;HPM_P2
2022/10/27 00:00:41;;;;;;;23.92;3.85;;;;;;;;;;5071640;28;20055;-82
2022/10/27 00:03:11;;;;;;;26.15;3.90;;;;;;;;;;5071330;28;20052;-81
2022/10/27 00:05:41;;;;;;;21.13;3.67;;;;;;;;;;5071340;28;20076;-81
2022/10/27 00:08:07;;;;;;;23.98;4.20;;;;;;;;;;5071450;28;20056;-81
2022/10/27 00:10:34;;;;;;;23.80;3.97;;;;;;;;;;5071241;28;20049;-81
2022/10/27 00:13:00;;;;;;;23.33;3.97;;;;;;;;;;5071520;28;20053;-81
2022/10/27 00:15:26;;;;;;;21.35;4.07;;;;;;;;;;5071177;28;20059;-81
2022/10/27 00:17:53;;;;;;;24.42;3.80;;;;;;;;;;5071115;28;20053;-81
2022/10/27 00:20:19;;;;;;;24.17;3.83;;;;;;;;;;5071194;28;20055;-81
2022/10/27 00:22:45;;;;;;;21.45;3.55;;;;;;;;;;5070966;28;20049;-81
2022/10/27 00:25:12;;;;;;;20.63;3.92;;;;;;;;;;5071123;28;20070;-81
2022/10/27 00:27:38;;;;;;;17.25;3.47;;;;;;;;;;5071209;28;20048;-81
2022/10/27 00:30:05;;;;;;;20.63;3.85;;;;;;;;;;5072141;28;20535;-81
2022/10/27 00:32:31;;;;;;;18.02;3.90;;;;;;;;;;5074786;28;20415;-81
2022/10/27 00:34:58;;;;;;;17.52;4.10;;;;;;;;;;5074867;28;20044;-81
2022/10/27 00:37:24;;;;;;;19.60;3.78;;;;;;;;;;5074974;28;20049;-81
2022/10/27 00:39:50;;;;;;;19.85;4.00;;;;;;;;;;5074561;28;20500;-81
2022/10/27 00:42:17;;;;;;;21.90;4.03;;;;;;;;;;5074515;28;20068;-81
2022/10/27 00:44:44;;;;;;;20.17;3.85;;;;;;;;;;5074478;28;20060;-80
2022/10/27 00:47:14;;;;;;;18.88;3.50;;;;;;;;;;5074456;28;20484;-81
2022/10/27 00:49:43;;;;;;;17.05;3.90;;;;;;;;;;5074456;28;20045;-81
2022/10/27 00:52:14;;;;;;;23.30;3.85;;;;;;;;;;5074715;28;20041;-81
2022/10/27 00:54:41;;;;;;;20.92;3.92;;;;;;;;;;5074485;28;20051;-82
2022/10/27 00:57:08;;;;;;;23.93;4.57;;;;;;;;;;5073227;28;20137;-81
2022/10/27 00:59:36;;;;;;;21.77;4.20;;;;;;;;;;5074476;28;20288;-81
2022/10/27 01:02:03;;;;;;;21.23;3.45;;;;;;;;;;5074123;28;20053;-81
2022/10/27 01:04:34;;;;;;;17.52;3.38;;;;;;;;;;5074515;28;20048;-81
2022/10/27 01:07:00;;;;;;;17.10;3.42;;;;;;;;;;5074141;28;20045;-81
2022/10/27 01:09:27;;;;;;;22.17;3.83;;;;;;;;;;5074140;28;20046;-81
2022/10/27 01:11:54;;;;;;;15.80;3.78;;;;;;;;;;5074139;28;20059;-81
2022/10/27 01:14:20;;;;;;;15.63;3.05;;;;;;;;;;5072762;28;20050;-81
2022/10/27 01:16:52;;;;;;;22.23;4.07;;;;;;;;;;5074006;28;20500;-81
2022/10/27 01:19:37;;;;;;;17.08;4.10;;;;;;;;;;5074303;28;20040;-81
2022/10/27 01:22:07;;;;;;;15.15;3.17;;;;;;;;;;5073986;28;20471;-81
2022/10/27 01:24:52;;;;;;;19.40;3.90;;;;;;;;;;5073779;28;20049;-81
2022/10/27 01:27:38;;;;;;;16.77;3.75;;;;;;;;;;5073797;28;20076;-81
2022/10/27 01:30:08;;;;;;;21.77;4.05;;;;;;;;;;5073896;28;20051;-81
2022/10/27 01:32:47;;;;;;;12.95;3.63;;;;;;;;;;5072488;28;20438;-81
2022/10/27 01:35:26;;;;;;;15.88;3.90;;;;;;;;;;5073995;28;20048;-81
2022/10/27 01:38:02;;;;;;;16.30;3.45;;;;;;;;;;5072879;28;20055;-80
2022/10/27 01:40:33;;;;;;;18.33;3.97;;;;;;;;;;5073607;28;20056;-81
2022/10/27 01:43:01;;;;;;;17.55;3.65;;;;;;;;;;5072152;28;20534;-80
2022/10/27 01:45:30;;;;;;;18.35;3.78;;;;;;;;;;5072165;28;20056;-81
2022/10/27 01:47:57;;;;;;;20.95;4.15;;;;;;;;;;5073646;28;20048;-81
2022/10/27 01:50:26;;;;;;;19.15;3.70;;;;;;;;;;5073390;28;20463;-81
2022/10/27 01:53:05;;;;;;;15.32;2.75;;;;;;;;;;5073836;28;20082;-81
2022/10/27 01:55:37;;;;;;;16.05;3.15;;;;;;;;;;5073266;28;20534;-80
2022/10/27 01:58:04;;;;;;;13.82;3.33;;;;;;;;;;5072324;28;20048;-81
2022/10/27 02:00:37;;;;;;;18.40;3.75;;;;;;;;;;5073030;28;20496;-80
2022/10/27 02:03:10;;;;;;;13.40;3.05;;;;;;;;;;5072241;28;20078;-81
2022/10/27 02:05:40;;;;;;;14.63;3.47;;;;;;;;;;5073208;28;20052;-80
2022/10/27 02:08:15;;;;;;;17.65;3.72;;;;;;;;;;5073013;28;20052;-81
2022/10/27 02:10:47;;;;;;;13.77;3.17;;;;;;;;;;5073284;28;20049;-81
2022/10/27 02:13:14;;;;;;;11.52;3.15;;;;;;;;;;5072895;28;20048;-81
2022/10/27 02:15:52;;;;;;;17.73;3.83;;;;;;;;;;5072950;28;20078;-80
2022/10/27 02:18:26;;;;;;;15.95;3.47;;;;;;;;;;5072948;28;20052;-80
2022/10/27 02:20:55;;;;;;;15.60;3.63;;;;;;;;;;5072763;28;20062;-80
2022/10/27 02:23:22;;;;;;;13.15;2.75;;;;;;;;;;5073030;28;20051;-81
2022/10/27 02:25:48;;;;;;;13.68;2.88;;;;;;;;;;5072821;28;20059;-81
2022/10/27 02:28:17;;;;;;;15.43;3.15;;;;;;;;;;5071431;28;20400;-81
2022/10/27 02:30:45;;;;;;;11.75;2.70;;;;;;;;;;5072754;28;20048;-81
2022/10/27 02:33:13;;;;;;;11.50;2.47;;;;;;;;;;5072677;28;20143;-81
2022/10/27 02:35:40;;;;;;;14.77;2.67;;;;;;;;;;5072942;28;20056;-81
2022/10/27 02:38:13;;;;;;;11.55;1.90;;;;;;;;;;5071455;28;20086;-81
2022/10/27 02:40:39;;;;;;;8.95;1.73;;;;;;;;;;5072567;28;20048;-81
2022/10/27 02:43:05;;;;;;;10.40;2.63;;;;;;;;;;5072319;28;20055;-81
2022/10/27 02:45:32;;;;;;;9.23;1.90;;;;;;;;;;5072142;28;20059;-81
2022/10/27 02:47:58;;;;;;;7.15;1.38;;;;;;;;;;5072600;28;20052;-81
2022/10/27 02:50:24;;;;;;;6.80;1.88;;;;;;;;;;5072484;28;20036;-82
2022/10/27 02:52:51;;;;;;;11.85;2.15;;;;;;;;;;5071850;28;20045;-81
2022/10/27 02:55:18;;;;;;;10.47;1.90;;;;;;;;;;5072423;28;20389;-82
2022/10/27 02:57:45;;;;;;;8.60;1.73;;;;;;;;;;5072333;28;20284;-82
2022/10/27 03:00:12;;;;;;;8.88;2.20;;;;;;;;;;5071764;28;20403;-81
2022/10/27 03:02:38;;;;;;;10.90;2.58;;;;;;;;;;5072055;28;20048;-81
2022/10/27 03:05:05;;;;;;;14.48;2.83;;;;;;;;;;5072192;28;20040;-81
2022/10/27 03:07:31;;;;;;;12.15;2.67;;;;;;;;;;5070669;28;20060;-82
2022/10/27 03:09:57;;;;;;;15.18;2.92;;;;;;;;;;5071894;28;20488;-82
2022/10/27 03:12:24;;;;;;;12.85;2.63;;;;;;;;;;5072103;28;20045;-83
2022/10/27 03:14:50;;;;;;;12.73;2.35;;;;;;;;;;5071849;28;20044;-82
2022/10/27 03:17:17;;;;;;;16.10;2.80;;;;;;;;;;5071732;28;20518;-82
2022/10/27 03:19:43;;;;;;;12.13;2.28;;;;;;;;;;5071859;28;20063;-81
2022/10/27 03:22:09;;;;;;;9.82;2.45;;;;;;;;;;5071735;28;20508;-81
2022/10/27 03:24:36;;;;;;;11.48;2.35;;;;;;;;;;5071745;28;20048;-82
2022/10/27 03:27:02;;;;;;;9.65;2.00;;;;;;;;;;5071876;28;20045;-82
2022/10/27 03:29:28;;;;;;;11.77;2.70;;;;;;;;;;5071795;28;20036;-82
2022/10/27 03:31:55;;;;;;;12.70;1.92;;;;;;;;;;5071969;28;20044;-81
2022/10/27 03:34:21;;;;;;;10.55;2.10;;;;;;;;;;5071821;28;20048;-83
2022/10/27 03:36:47;;;;;;;10.02;2.60;;;;;;;;;;5071815;28;20056;-82
2022/10/27 03:39:14;;;;;;;8.35;2.20;;;;;;;;;;5072042;28;20052;-82
2022/10/27 03:41:40;;;;;;;5.72;1.92;;;;;;;;;;5071615;28;20048;-82
2022/10/27 03:44:06;;;;;;;12.82;2.28;;;;;;;;;;5071909;28;20072;-81
2022/10/27 03:46:33;;;;;;;11.10;2.60;;;;;;;;;;5071658;28;20519;-82
2022/10/27 03:48:59;;;;;;;11.93;2.30;;;;;;;;;;5071462;28;20053;-82
2022/10/27 03:51:26;;;;;;;9.68;2.10;;;;;;;;;;5071429;28;20045;-82
2022/10/27 03:53:52;;;;;;;11.30;2.00;;;;;;;;;;5071482;28;20049;-81
2022/10/27 03:56:18;;;;;;;8.10;1.80;;;;;;;;;;5071684;28;20058;-82
2022/10/27 03:58:45;;;;;;;7.88;1.95;;;;;;;;;;5071394;28;20431;-82
2022/10/27 04:01:11;;;;;;;10.70;2.50;;;;;;;;;;5063482;28;20064;-82
2022/10/27 04:03:38;;;;;;;8.27;2.20;;;;;;;;;;5071617;28;20052;-82
2022/10/27 04:06:04;;;;;;;11.07;2.00;;;;;;;;;;5075469;28;20049;-82
2022/10/27 04:08:31;;;;;;;7.72;1.70;;;;;;;;;;5075216;28;20051;-82
2022/10/27 04:10:57;;;;;;;10.75;1.65;;;;;;;;;;5075566;28;20048;-82
2022/10/27 04:13:23;;;;;;;7.63;1.90;;;;;;;;;;5075125;28;20041;-83
2022/10/27 04:15:58;;;;;;;6.07;1.55;;;;;;;;;;5075264;28;20052;-82
2022/10/27 04:18:24;;;;;;;11.23;2.30;;;;;;;;;;5075197;28;20045;-83
2022/10/27 04:20:51;;;;;;;10.50;2.28;;;;;;;;;;5075183;28;20515;-83
2022/10/27 04:23:17;;;;;;;8.43;1.90;;;;;;;;;;5075106;28;20055;-82
2022/10/27 04:25:44;;;;;;;8.85;1.95;;;;;;;;;;5075056;28;20044;-82
2022/10/27 04:28:10;;;;;;;6.97;1.65;;;;;;;;;;5075194;28;20047;-82
2022/10/27 04:30:36;;;;;;;9.00;2.08;;;;;;;;;;5074836;28;20048;-80
2022/10/27 04:33:03;;;;;;;5.00;1.70;;;;;;;;;;5075088;28;20408;-80
2022/10/27 04:35:29;;;;;;;6.28;1.70;;;;;;;;;;5074707;28;20418;-80
2022/10/27 04:37:56;;;;;;;6.60;1.80;;;;;;;;;;5073704;28;20044;-80
2022/10/27 04:40:23;;;;;;;11.00;2.05;;;;;;;;;;5074780;28;20567;-79
2022/10/27 04:42:50;;;;;;;5.72;1.58;;;;;;;;;;5074949;28;20048;-80
2022/10/27 04:45:16;;;;;;;8.80;1.90;;;;;;;;;;5074484;28;20071;-80
2022/10/27 04:47:44;;;;;;;10.40;2.45;;;;;;;;;;5074850;28;20052;-80
2022/10/27 04:50:11;;;;;;;7.57;1.77;;;;;;;;;;5074863;28;20124;-80
2022/10/27 04:52:37;;;;;;;7.97;2.40;;;;;;;;;;5074426;28;20492;-79
2022/10/27 04:55:09;;;;;;;10.63;2.50;;;;;;;;;;5074442;28;20131;-79
2022/10/27 04:57:35;;;;;;;7.28;2.40;;;;;;;;;;5074720;28;20063;-79
2022/10/27 05:00:02;;;;;;;8.82;2.08;;;;;;;;;;5074598;28;20052;-79
2022/10/27 05:02:28;;;;;;;10.13;2.70;;;;;;;;;;5074288;28;20054;-79
2022/10/27 05:05:01;;;;;;;14.50;2.97;;;;;;;;;;5074251;28;20660;-79
2022/10/27 05:07:27;;;;;;;10.95;2.70;;;;;;;;;;5074317;28;20057;-80
2022/10/27 05:09:54;;;;;;;12.50;2.88;;;;;;;;;;5074054;28;20052;-79
2022/10/27 05:12:20;;;;;;;9.73;2.78;;;;;;;;;;5072833;28;20048;-79
2022/10/27 05:14:46;;;;;;;6.65;2.42;;;;;;;;;;5074280;28;20058;-80
2022/10/27 05:17:13;;;;;;;8.88;2.95;;;;;;;;;;5072391;28;20058;-80
2022/10/27 05:19:44;;;;;;;7.95;2.55;;;;;;;;;;5073002;28;20094;-79
2022/10/27 05:22:11;;;;;;;8.80;2.97;;;;;;;;;;5072764;28;20491;-80
2022/10/27 05:24:37;;;;;;;9.70;2.80;;;;;;;;;;5074137;28;20067;-80
2022/10/27 05:27:03;;;;;;;7.97;2.70;;;;;;;;;;5072823;28;20041;-80
2022/10/27 05:29:30;;;;;;;9.40;3.08;;;;;;;;;;5074087;28;20053;-80
2022/10/27 05:31:56;;;;;;;8.90;3.00;;;;;;;;;;5074297;28;20044;-80
2022/10/27 05:34:23;;;;;;;9.07;3.20;;;;;;;;;;5073847;28;20404;-82
2022/10/27 05:36:50;;;;;;;10.18;3.47;;;;;;;;;;5074340;28;20419;-81
2022/10/27 05:39:16;;;;;;;7.18;3.03;;;;;;;;;;5073904;28;20056;-82
2022/10/27 05:41:42;;;;;;;11.05;3.80;;;;;;;;;;5073873;28;20052;-82
2022/10/27 05:44:09;;;;;;;9.43;3.25;;;;;;;;;;5073401;28;20151;-82
2022/10/27 05:46:35;;;;;;;11.27;3.53;;;;;;;;;;5073814;28;20049;-83
2022/10/27 05:49:01;;;;;;;11.30;3.55;;;;;;;;;;5072594;28;20044;-81
2022/10/27 05:51:28;;;;;;;11.88;3.92;;;;;;;;;;5073999;28;20261;-83
2022/10/27 05:53:55;;;;;;;11.25;3.47;;;;;;;;;;5073465;28;20052;-83
2022/10/27 05:56:21;;;;;;;12.95;4.00;;;;;;;;;;5073557;28;20127;-83
2022/10/27 05:58:47;;;;;;;11.07;3.92;;;;;;;;;;5073308;28;20044;-83
2022/10/27 06:01:14;;;;;;;10.15;3.88;;;;;;;;;;5073269;28;20476;-83
2022/10/27 06:03:40;;;;;;;7.10;3.63;;;;;;;;;;5072804;28;20071;-84
2022/10/27 06:06:07;;;;;;;12.48;4.65;;;;;;;;;;5072985;28;20044;-83
2022/10/27 06:08:33;;;;;;;8.43;4.63;;;;;;;;;;5072903;28;20051;-83
2022/10/27 06:11:00;;;;;;;11.57;4.68;;;;;;;;;;5073441;28;20051;-83
2022/10/27 06:13:27;;;;;;;12.30;5.10;;;;;;;;;;5069674;28;20049;-83
2022/10/27 06:15:53;;;;;;;8.20;5.13;;;;;;;;;;5051622;28;20060;-83
2022/10/27 06:18:19;;;;;;;10.23;5.40;;;;;;;;;;5071686;28;20040;-84
2022/10/27 06:20:46;;;;;;;12.90;5.80;;;;;;;;;;5072764;28;20066;-83
2022/10/27 06:23:12;;;;;;;11.85;6.30;;;;;;;;;;5072674;28;20051;-80
2022/10/27 06:25:39;;;;;;;10.35;6.05;;;;;;;;;;5072808;28;20059;-80
2022/10/27 06:28:05;;;;;;;14.88;6.22;;;;;;;;;;5071770;28;20052;-80
2022/10/27 06:30:31;;;;;;;13.23;6.32;;;;;;;;;;5072905;28;20040;-78
2022/10/27 06:32:58;;;;;;;16.52;7.03;;;;;;;;;;5055791;28;20055;-79
2022/10/27 06:35:24;;;;;;;13.40;7.20;;;;;;;;;;5066737;28;20403;-79
2022/10/27 06:37:50;;;;;;;11.88;7.07;;;;;;;;;;5044092;28;20119;-79
2022/10/27 06:40:18;;;;;;;12.38;7.95;;;;;;;;;;5052404;28;20128;-78
2022/10/27 06:42:46;;;;;;;13.90;8.82;;;;;;;;;;5051905;28;20045;-76
2022/10/27 06:45:30;;;;;;;15.10;8.50;;;;;;;;;;5058971;28;20052;-80
2022/10/27 06:47:57;;;;;;;11.48;8.57;;;;;;;;;;5072287;28;20040;-80
2022/10/27 06:50:24;;;;;;;13.18;8.93;;;;;;;;;;5072426;28;20110;-80
2022/10/27 06:52:51;;;;;;;16.10;9.68;;;;;;;;;;5054438;28;20040;-77
2022/10/27 06:55:18;;;;;;;14.32;9.52;;;;;;;;;;5072527;28;20128;-78
2022/10/27 06:57:44;;;;;;;13.52;9.25;;;;;;;;;;5071175;28;20051;-78
2022/10/27 07:00:11;;;;;;;11.48;9.63;;;;;;;;;;5072122;28;20064;-69
2022/10/27 07:02:38;;;;;;;14.93;10.57;;;;;;;;;;5071943;28;20067;-82
2022/10/27 07:05:04;;;;;;;16.25;10.95;;;;;;;;;;5070623;28;20303;-79
2022/10/27 07:07:31;;;;;;;13.73;9.70;;;;;;;;;;5071266;28;20054;-81
2022/10/27 07:09:57;;;;;;;13.57;9.60;;;;;;;;;;5070437;28;20045;-81
2022/10/27 07:12:24;;;;;;;14.43;10.30;;;;;;;;;;5071858;28;20052;-81
2022/10/27 07:14:50;;;;;;;14.00;10.10;;;;;;;;;;5072106;28;20075;-81
2022/10/27 07:17:16;;;;;;;15.02;9.77;;;;;;;;;;5071775;28;20077;-81
2022/10/27 07:19:43;;;;;;;15.55;10.48;;;;;;;;;;5072107;28;20192;-81
2022/10/27 07:22:09;;;;;;;14.20;10.48;;;;;;;;;;5068611;28;20521;-82
2022/10/27 07:24:35;;;;;;;14.82;11.52;;;;;;;;;;5053729;28;20055;-83
2022/10/27 07:27:02;;;;;;;13.68;10.85;;;;;;;;;;5053843;28;20053;-81
2022/10/27 07:29:32;;;;;;;15.75;11.35;;;;;;;;;;5071629;28;20049;-82
2022/10/27 07:31:58;;;;;;;13.20;10.75;;;;;;;;;;5071835;28;20044;-82
2022/10/27 07:34:25;;;;;;;15.98;9.25;;;;;;;;;;5069218;28;20040;-82
2022/10/27 07:36:51;;;;;;;13.38;8.18;;;;;;;;;;5071626;28;20052;-82
2022/10/27 07:39:18;;;;;;;10.15;6.38;;;;;;;;;;5071303;28;20499;-82
2022/10/27 07:41:44;;;;;;;12.43;6.10;;;;;;;;;;5070342;28;20060;-82
2022/10/27 07:44:10;;;;;;;7.25;4.70;;;;;;;;;;5071310;28;20048;-83
2022/10/27 07:46:37;;;;;;;12.50;3.83;;;;;;;;;;5071548;28;20037;-82
2022/10/27 07:49:03;;;;;;;10.32;2.97;;;;;;;;;;5071582;28;20434;-82
2022/10/27 07:51:29;;;;;;;10.93;2.80;;;;;;;;;;5071069;28;20127;-82
2022/10/27 07:53:56;;;;;;;9.27;2.95;;;;;;;;;;5071585;28;20055;-82
2022/10/27 07:56:23;;;;;;;5.80;2.20;;;;;;;;;;5071931;28;20056;-82
2022/10/27 07:58:49;;;;;;;5.97;2.60;;;;;;;;;;5071339;28;20052;-82
2022/10/27 08:01:16;;;;;;;10.35;3.08;;;;;;;;;;5071571;28;20423;-82
2022/10/27 08:03:42;;;;;;;5.88;2.03;;;;;;;;;;5071336;28;20056;-82
2022/10/27 08:06:13;;;;;;;8.32;2.35;;;;;;;;;;5071368;28;20043;-83
2022/10/27 08:08:40;;;;;;;6.95;2.38;;;;;;;;;;5071227;28;20488;-83
2022/10/27 08:11:06;;;;;;;8.30;2.33;;;;;;;;;;5071339;28;20053;-82
2022/10/27 08:13:33;;;;;;;6.53;2.20;;;;;;;;;;5070634;28;20131;-82
2022/10/27 08:15:59;;;;;;;5.47;1.92;;;;;;;;;;5071537;28;20056;-82
2022/10/27 08:18:25;;;;;;;7.47;2.28;;;;;;;;;;5071184;28;20040;-82
2022/10/27 08:20:52;;;;;;;6.30;2.15;;;;;;;;;;5071476;28;20048;-83
2022/10/27 08:23:20;;;;;;;7.40;2.00;;;;;;;;;;5071488;28;20053;-82
2022/10/27 08:25:47;;;;;;;7.03;2.30;;;;;;;;;;5069994;28;20048;-82
2022/10/27 08:28:13;;;;;;;6.07;1.77;;;;;;;;;;5071005;28;20048;-82
2022/10/27 08:30:40;;;;;;;9.35;2.40;;;;;;;;;;5071357;28;20412;-83
2022/10/27 08:33:17;;;;;;;7.80;2.58;;;;;;;;;;5071333;28;20132;-82
2022/10/27 08:35:43;;;;;;;5.22;1.70;;;;;;;;;;5071367;28;20063;-83
2022/10/27 08:38:12;;;;;;;9.18;2.65;;;;;;;;;;5071430;28;20048;-83
2022/10/27 08:40:59;;;;;;;8.13;1.80;;;;;;;;;;5071096;28;20048;-83
2022/10/27 08:43:29;;;;;;;5.90;2.38;;;;;;;;;;5071151;28;20048;-83
2022/10/27 08:45:59;;;;;;;4.80;1.90;;;;;;;;;;5069555;28;20056;-83
2022/10/27 08:48:26;;;;;;;6.18;1.90;;;;;;;;;;5070010;28;20049;-83
2022/10/27 08:50:53;;;;;;;6.85;1.90;;;;;;;;;;5071715;28;20052;-83
2022/10/27 08:53:25;;;;;;;6.47;2.10;;;;;;;;;;5074583;28;20049;-83
2022/10/27 08:55:54;;;;;;;5.72;2.20;;;;;;;;;;5074713;28;20056;-83
2022/10/27 08:58:20;;;;;;;6.78;2.08;;;;;;;;;;5074332;28;20406;-81
2022/10/27 09:00:55;;;;;;;10.15;2.08;;;;;;;;;;5074561;28;20054;-81
2022/10/27 09:03:41;;;;;;;9.02;2.22;;;;;;;;;;5074326;28;20080;-81
2022/10/27 09:06:15;;;;;;;12.55;2.70;;;;;;;;;;5074488;28;20040;-81
2022/10/27 09:08:50;;;;;;;6.57;2.55;;;;;;;;;;5073126;28;20051;-81
2022/10/27 09:11:25;;;;;;;14.75;2.90;;;;;;;;;;5074528;28;20057;-83
2022/10/27 09:14:06;;;;;;;8.40;2.17;;;;;;;;;;5074365;28;20059;-83
2022/10/27 09:16:53;;;;;;;9.02;2.30;;;;;;;;;;5074136;28;20053;-83
2022/10/27 09:19:32;;;;;;;6.00;2.33;;;;;;;;;;5072644;28;20057;-83
2022/10/27 09:22:00;;;;;;;8.43;2.55;;;;;;;;;;5074234;28;20048;-82
2022/10/27 09:24:28;;;;;;;7.55;2.58;;;;;;;;;;5074232;28;20058;-83
2022/10/27 09:26:56;;;;;;;8.65;2.75;;;;;;;;;;5074052;28;20051;-82
2022/10/27 09:29:23;;;;;;;7.57;2.72;;;;;;;;;;5074037;28;20045;-82
2022/10/27 09:31:54;;;;;;;10.02;2.70;;;;;;;;;;5073792;28;20667;-83
2022/10/27 09:34:20;;;;;;;8.02;2.90;;;;;;;;;;5073739;28;20070;-83
2022/10/27 09:36:47;;;;;;;13.45;2.90;;;;;;;;;;5073662;28;20052;-82
2022/10/27 09:39:13;;;;;;;8.75;3.15;;;;;;;;;;5074061;28;20055;-82
2022/10/27 09:41:39;;;;;;;9.55;2.42;;;;;;;;;;5073908;28;20424;-82
2022/10/27 09:44:15;;;;;;;6.32;2.97;;;;;;;;;;5073263;28;20050;-82
2022/10/27 09:46:42;;;;;;;5.85;3.00;;;;;;;;;;5073793;28;20442;-82
2022/10/27 09:49:09;;;;;;;10.43;3.15;;;;;;;;;;5073387;28;20051;-82
2022/10/27 09:51:45;;;;;;;10.27;2.50;;;;;;;;;;5073414;28;20098;-82
2022/10/27 09:54:28;;;;;;;7.60;2.33;;;;;;;;;;5073347;28;20041;-82
2022/10/27 09:56:55;;;;;;;9.48;2.70;;;;;;;;;;5073399;28;20055;-82
2022/10/27 09:59:22;;;;;;;7.05;2.85;;;;;;;;;;5073258;28;20047;-82
2022/10/27 10:01:55;;;;;;;6.60;2.42;;;;;;;;;;5073192;28;20056;-82
2022/10/27 10:04:30;;;;;;;9.57;2.65;;;;;;;;;;5071865;28;20048;-82
2022/10/27 10:06:58;;;;;;;10.80;2.50;;;;;;;;;;5073337;28;20049;-82
2022/10/27 10:09:27;;;;;;;6.57;2.42;;;;;;;;;;5073246;28;20048;-82
2022/10/27 10:12:12;;;;;;;8.90;2.53;;;;;;;;;;5073122;28;20050;-82
2022/10/27 10:14:42;;;;;;;9.48;2.47;;;;;;;;;;5073117;28;20071;-82
2022/10/27 10:17:19;;;;;;;9.85;2.30;;;;;;;;;;5073075;28;20048;-83
2022/10/27 10:19:46;;;;;;;9.00;2.25;;;;;;;;;;5073165;28;20045;-82
2022/10/27 10:22:20;;;;;;;8.90;2.25;;;;;;;;;;5072854;28;20048;-82
2022/10/27 10:24:47;;;;;;;9.00;2.08;;;;;;;;;;5071501;28;20051;-82
2022/10/27 10:27:23;;;;;;;7.78;2.35;;;;;;;;;;5072923;28;20413;-82
2022/10/27 10:29:49;;;;;;;11.73;2.42;;;;;;;;;;5072689;28;20052;-82
2022/10/27 10:32:17;;;;;;;6.20;1.98;;;;;;;;;;5072568;28;20480;-82
2022/10/27 10:34:44;;;;;;;10.18;2.10;;;;;;;;;;5072842;28;20044;-82
2022/10/27 10:37:34;;;;;;;8.52;2.25;;;;;;;;;;5072718;28;20047;-82
2022/10/27 10:40:12;;;;;;;6.95;2.33;;;;;;;;;;5067158;28;20496;-82
2022/10/27 10:42:39;;;;;;;8.60;2.25;;;;;;;;;;5072706;28;20040;-83
2022/10/27 10:45:15;;;;;;;7.85;2.00;;;;;;;;;;5072253;28;20071;-82
2022/10/27 10:47:45;;;;;;;9.75;2.03;;;;;;;;;;5072582;28;20041;-82
2022/10/27 10:50:12;;;;;;;8.05;2.05;;;;;;;;;;5072757;28;20051;-83
2022/10/27 10:52:43;;;;;;;6.60;1.67;;;;;;;;;;5072745;28;20044;-83
2022/10/27 10:55:24;;;;;;;9.85;2.03;;;;;;;;;;5072269;28;20062;-82
2022/10/27 10:57:53;;;;;;;7.03;1.88;;;;;;;;;;5045744;28;20055;-81
2022/10/27 11:00:20;;;;;;;7.22;1.75;;;;;;;;;;5072296;28;20056;-80
2022/10/27 11:03:13;;;;;;;5.22;1.50;;;;;;;;;;5070784;28;20047;-80
2022/10/27 11:05:39;;;;;;;5.80;1.65;;;;;;;;;;5070029;28;20053;-80
2022/10/27 11:08:17;;;;;;;6.17;1.30;;;;;;;;;;5072005;28;20047;-80
2022/10/27 11:10:45;;;;;;;7.22;1.50;;;;;;;;;;5072079;28;20283;-80
2022/10/27 11:13:15;;;;;;;7.40;1.75;;;;;;;;;;5070528;28;20070;-80
2022/10/27 11:15:48;;;;;;;9.13;1.60;;;;;;;;;;5071810;28;20044;-81
2022/10/27 11:18:20;;;;;;;7.63;1.65;;;;;;;;;;5071843;28;20055;-80
2022/10/27 11:20:48;;;;;;;9.20;1.58;;;;;;;;;;5071765;28;20060;-80
2022/10/27 11:23:16;;;;;;;9.95;1.80;;;;;;;;;;5071991;28;20054;-80
2022/10/27 11:25:43;;;;;;;5.88;1.52;;;;;;;;;;5070568;28;20158;-80
2022/10/27 11:28:10;;;;;;;8.23;1.67;;;;;;;;;;5071650;28;20054;-80
2022/10/27 11:30:42;;;;;;;7.95;1.58;;;;;;;;;;5070645;28;20037;-80
2022/10/27 11:33:24;;;;;;;7.15;1.80;;;;;;;;;;5071714;28;20050;-80
2022/10/27 11:36:09;;;;;;;9.05;1.50;;;;;;;;;;5071940;28;20058;-80
2022/10/27 11:38:36;;;;;;;9.73;1.75;;;;;;;;;;5071574;28;20131;-80
2022/10/27 11:41:11;;;;;;;10.60;2.47;;;;;;;;;;5071538;28;20532;-80
2022/10/27 11:44:01;;;;;;;9.50;2.05;;;;;;;;;;5071718;28;20060;-80
2022/10/27 11:46:44;;;;;;;7.68;1.80;;;;;;;;;;5070291;28;20557;-80
2022/10/27 11:49:20;;;;;;;9.02;2.10;;;;;;;;;;5072049;28;20055;-81
2022/10/27 11:51:54;;;;;;;9.45;1.92;;;;;;;;;;5071940;28;20045;-80
2022/10/27 11:54:21;;;;;;;9.95;1.75;;;;;;;;;;5072113;28;20044;-80
2022/10/27 11:56:54;;;;;;;9.60;2.00;;;;;;;;;;5071868;28;20044;-80
2022/10/27 11:59:39;;;;;;;8.55;2.05;;;;;;;;;;5071466;28;20056;-80
2022/10/27 12:02:08;;;;;;;10.18;2.08;;;;;;;;;;5056432;28;20053;-80
2022/10/27 12:04:58;;;;;;;8.73;1.70;;;;;;;;;;5043792;28;20054;-80
2022/10/27 12:07:36;;;;;;;7.15;1.63;;;;;;;;;;5071384;28;20052;-80
2022/10/27 12:10:03;;;;;;;11.75;1.98;;;;;;;;;;5071396;28;20055;-80
2022/10/27 12:12:32;;;;;;;9.00;1.88;;;;;;;;;;5070075;28;20048;-81
2022/10/27 12:14:58;;;;;;;10.93;2.50;;;;;;;;;;5070205;28;20055;-80
2022/10/27 12:17:43;;;;;;;13.73;2.33;;;;;;;;;;5070283;28;20053;-80
2022/10/27 12:20:12;;;;;;;8.95;1.83;;;;;;;;;;5071145;28;20049;-80
2022/10/27 12:22:42;;;;;;;11.43;1.90;;;;;;;;;;5071344;28;20059;-81
2022/10/27 12:25:30;;;;;;;9.30;2.17;;;;;;;;;;5072387;28;20044;-81
2022/10/27 12:27:59;;;;;;;11.73;2.38;;;;;;;;;;5075465;28;20049;-80
2022/10/27 12:30:25;;;;;;;9.60;2.50;;;;;;;;;;5075128;28;20075;-80
2022/10/27 12:32:52;;;;;;;10.43;2.03;;;;;;;;;;5075261;28;20051;-80
2022/10/27 12:35:37;;;;;;;12.98;2.40;;;;;;;;;;5074872;28;20086;-80
2022/10/27 12:38:19;;;;;;;12.73;2.55;;;;;;;;;;5074716;28;20045;-80
2022/10/27 12:40:55;;;;;;;13.75;2.50;;;;;;;;;;5075061;28;20051;-80
2022/10/27 12:43:27;;;;;;;7.85;1.98;;;;;;;;;;5074685;28;20048;-80
2022/10/27 12:45:54;;;;;;;10.68;2.30;;;;;;;;;;5074475;28;20049;-80
2022/10/27 12:48:20;;;;;;;8.40;2.00;;;;;;;;;;5074549;28;20052;-80
2022/10/27 12:50:49;;;;;;;13.13;2.33;;;;;;;;;;5074784;28;20048;-80
2022/10/27 12:53:16;;;;;;;10.43;2.10;;;;;;;;;;5074701;28;20048;-80
2022/10/27 12:56:08;;;;;;;8.95;1.90;;;;;;;;;;5074691;28;20071;-80
2022/10/27 12:58:55;;;;;;;7.03;1.95;;;;;;;;;;5070516;28;20484;-80
2022/10/27 13:01:43;;;;;;;8.65;1.83;;;;;;;;;;5074150;28;20463;-80
2022/10/27 13:04:28;;;;;;;8.52;1.90;;;;;;;;;;5074739;28;20408;-80
2022/10/27 13:07:01;;;;;;;6.72;1.77;;;;;;;;;;5074205;28;20049;-80
2022/10/27 13:09:47;;;;;;;8.73;1.90;;;;;;;;;;5074234;28;20481;-80
2022/10/27 13:12:33;;;;;;;7.80;2.35;;;;;;;;;;5074000;28;20518;-80
2022/10/27 13:15:11;;;;;;;8.48;2.15;;;;;;;;;;5074572;28;20040;-80
2022/10/27 13:17:46;;;;;;;12.25;2.25;;;;;;;;;;5072978;28;20052;-80
2022/10/27 13:20:20;;;;;;;8.40;2.03;;;;;;;;;;5074192;28;20048;-80
2022/10/27 13:22:53;;;;;;;11.43;2.70;;;;;;;;;;5072800;28;20150;-80
2022/10/27 13:25:46;;;;;;;13.77;2.63;;;;;;;;;;5072655;28;20508;-80
2022/10/27 13:28:19;;;;;;;10.57;1.95;;;;;;;;;;5071840;28;20514;-80
2022/10/27 13:30:54;;;;;;;12.95;2.42;;;;;;;;;;5074324;28;20056;-80
2022/10/27 13:33:31;;;;;;;10.57;1.83;;;;;;;;;;5073930;28;20515;-80
2022/10/27 13:36:17;;;;;;;10.77;2.00;;;;;;;;;;5074091;28;20162;-80
2022/10/27 13:38:43;;;;;;;8.82;1.73;;;;;;;;;;5073814;28;20053;-82
2022/10/27 13:41:10;;;;;;;9.65;1.77;;;;;;;;;;5073625;28;20499;-81
2022/10/27 13:43:36;;;;;;;8.30;2.00;;;;;;;;;;5073745;28;20051;-80
2022/10/27 13:46:03;;;;;;;8.70;2.08;;;;;;;;;;5073479;28;20048;-81
2022/10/27 13:48:31;;;;;;;9.57;2.00;;;;;;;;;;5072471;28;20430;-81
2022/10/27 13:50:58;;;;;;;8.95;2.03;;;;;;;;;;5045816;28;20131;-81
2022/10/27 13:53:27;;;;;;;8.85;1.63;;;;;;;;;;5073648;28;20048;-80
2022/10/27 13:56:19;;;;;;;10.60;2.67;;;;;;;;;;5073546;28;20048;-80
2022/10/27 13:59:00;;;;;;;8.63;1.70;;;;;;;;;;5073385;28;20049;-81
2022/10/27 14:01:26;;;;;;;9.43;2.50;;;;;;;;;;5073205;28;20054;-82
2022/10/27 14:03:59;;;;;;;8.90;1.90;;;;;;;;;;5073643;28;20055;-81
2022/10/27 14:06:30;;;;;;;8.75;1.85;;;;;;;;;;5073138;28;20049;-81
2022/10/27 14:09:02;;;;;;;7.82;1.55;;;;;;;;;;5072998;28;20055;-81
2022/10/27 14:11:29;;;;;;;5.68;1.60;;;;;;;;;;5073028;28;20044;-81
2022/10/27 14:13:57;;;;;;;5.53;1.67;;;;;;;;;;5073092;28;20047;-81
2022/10/27 14:16:26;;;;;;;5.47;1.30;;;;;;;;;;5072865;28;20052;-81
2022/10/27 14:19:03;;;;;;;9.32;2.17;;;;;;;;;;5073180;28;20053;-81
2022/10/27 14:21:32;;;;;;;10.73;2.30;;;;;;;;;;5072992;28;20483;-81
2022/10/27 14:24:03;;;;;;;8.90;2.00;;;;;;;;;;5072879;28;20052;-81
2022/10/27 14:26:31;;;;;;;5.68;1.80;;;;;;;;;;5072843;28;20041;-81
2022/10/27 14:28:58;;;;;;;6.47;1.50;;;;;;;;;;5073004;28;20040;-81
2022/10/27 14:31:24;;;;;;;6.65;1.60;;;;;;;;;;5073012;28;20048;-81
2022/10/27 14:33:51;;;;;;;8.10;2.08;;;;;;;;;;5072646;28;20059;-81
2022/10/27 14:36:19;;;;;;;7.57;1.52;;;;;;;;;;5071356;28;20051;-81
2022/10/27 14:38:47;;;;;;;7.25;1.50;;;;;;;;;;5072671;28;20044;-81
2022/10/27 14:41:18;;;;;;;7.28;1.60;;;;;;;;;;5072705;28;20060;-81
2022/10/27 14:43:47;;;;;;;8.23;1.58;;;;;;;;;;5072371;28;20050;-81
2022/10/27 14:46:21;;;;;;;6.50;1.70;;;;;;;;;;5072298;28;20067;-81
2022/10/27 14:49:02;;;;;;;7.57;1.63;;;;;;;;;;5071817;28;20048;-81
2022/10/27 14:51:31;;;;;;;9.40;1.73;;;;;;;;;;5072290;28;20058;-80